Time;durP1;ratioP1;P1;durP2;ratioP2;P2;SDS_P1;SDS_P2;PMS_P1;PMS_P2;Temp;Humidity;BMP_temperature;BMP_pressure;BME280_temperature;BME280_humidity;BME280_pressure;Samples;Min_cycle;Max_cycle;Signal;HPM_P1;HPM_P2
2022/04/08 00:00:46;;;;;;;8.60;6.30;;;;;;;7.24;80.95;95748.89;109999;1247;59735;-64
2022/04/08 00:03:16;;;;;;;8.70;6.00;;;;;;;7.23;81.33;95746.60;110138;1246;59612;-65
2022/04/08 00:05:47;;;;;;;9.10;6.30;;;;;;;7.22;79.60;95754.43;110047;1247;70763;-62
2022/04/08 00:08:19;;;;;;;7.10;6.00;;;;;;;7.22;80.33;95757.77;110151;1247;69365;-62
2022/04/08 00:10:49;;;;;;;11.50;8.50;;;;;;;7.21;81.01;95759.22;110026;1247;68487;-62
2022/04/08 00:13:19;;;;;;;10.90;7.60;;;;;;;7.22;81.00;95754.48;110110;1247;59772;-62
2022/04/08 00:15:50;;;;;;;11.80;8.80;;;;;;;7.24;81.95;95760.20;110117;1247;59734;-62
2022/04/08 00:18:20;;;;;;;11.10;8.00;;;;;;;7.29;82.16;95761.85;110032;1247;70767;-63
2022/04/08 00:20:51;;;;;;;8.70;6.90;;;;;;;7.33;81.65;95767.70;110107;1248;68564;-63
2022/04/08 00:23:21;;;;;;;12.90;9.30;;;;;;;7.37;81.42;95765.80;110103;1247;68602;-60
2022/04/08 00:25:52;;;;;;;12.30;10.00;;;;;;;7.40;81.16;95766.91;110148;1247;60137;-61
2022/04/08 00:28:22;;;;;;;13.60;8.60;;;;;;;7.42;81.14;95766.39;110117;1246;59678;-61
2022/04/08 00:30:52;;;;;;;;;;;;;;;7.43;81.00;95763.02;109973;1248;70728;-60
2022/04/08 00:33:23;;;;;;;10.60;7.70;;;;;;;7.44;80.63;95766.42;109969;1247;69465;-63
2022/04/08 00:35:53;;;;;;;8.90;6.90;;;;;;;7.45;80.59;95780.25;109948;1247;69378;-64
2022/04/08 00:38:24;;;;;;;9.50;6.80;;;;;;;7.45;80.52;95783.84;110061;1247;59726;-65
2022/04/08 00:40:54;;;;;;;8.10;6.20;;;;;;;7.48;80.05;95791.52;109967;1248;59682;-64
2022/04/08 00:43:37;;;;;;;8.20;6.70;;;;;;;7.48;80.09;95794.11;109856;1247;70779;-62
2022/04/08 00:46:11;;;;;;;9.60;6.30;;;;;;;7.51;79.83;95795.27;109988;1248;68831;-64
2022/04/08 00:48:41;;;;;;;10.40;7.60;;;;;;;7.51;79.77;95796.11;109949;1249;69454;-63
2022/04/08 00:51:13;;;;;;;9.30;7.30;;;;;;;7.53;79.52;95788.67;109962;1247;59766;-64
2022/04/08 00:53:45;;;;;;;11.70;8.40;;;;;;;7.56;79.47;95785.62;109838;1247;59701;-63
2022/04/08 00:56:15;;;;;;;10.10;6.50;;;;;;;7.58;79.25;95787.56;109964;1248;71510;-64
2022/04/08 00:58:45;;;;;;;8.30;6.30;;;;;;;7.56;79.38;95787.57;109940;1247;69833;-63
2022/04/08 01:01:15;;;;;;;;;;;;;;;7.56;79.34;95790.13;109913;1247;69429;-65
2022/04/08 01:03:46;;;;;;;8.20;6.40;;;;;;;7.53;79.70;95793.73;110034;1247;59768;-62
2022/04/08 01:06:16;;;;;;;10.60;7.40;;;;;;;7.51;79.71;95796.30;109842;1249;59592;-67
2022/04/08 01:08:51;;;;;;;13.30;7.40;;;;;;;7.50;79.77;95797.62;110021;1247;71554;-62
2022/04/08 01:11:23;;;;;;;11.50;7.90;;;;;;;7.50;79.73;95802.81;109816;1247;69424;-66
2022/04/08 01:13:54;;;;;;;11.40;7.30;;;;;;;7.49;79.59;95810.15;109955;1247;68633;-63
2022/04/08 01:16:25;;;;;;;9.60;6.30;;;;;;;7.48;79.49;95815.98;109904;1249;59761;-65
2022/04/08 01:18:56;;;;;;;11.40;8.30;;;;;;;7.48;79.52;95824.13;109913;1249;59714;-65
2022/04/08 01:21:27;;;;;;;8.00;6.10;;;;;;;7.50;79.19;95829.72;110096;1247;71518;-63
2022/04/08 01:23:59;;;;;;;8.30;6.20;;;;;;;7.51;79.13;95832.85;110110;1246;68574;-66
2022/04/08 01:26:30;;;;;;;10.10;7.00;;;;;;;7.52;79.27;95836.79;110066;1247;69254;-63
2022/04/08 01:29:01;;;;;;;10.60;8.20;;;;;;;7.49;79.40;95833.61;110074;1247;59768;-63
2022/04/08 01:31:31;;;;;;;11.20;8.00;;;;;;;7.51;79.21;95834.63;110072;1247;59688;-65
2022/04/08 01:34:01;;;;;;;8.40;6.30;;;;;;;7.52;78.85;95838.89;110110;1247;72180;-63
2022/04/08 01:36:32;;;;;;;7.80;5.90;;;;;;;7.51;79.16;95835.70;110083;1247;69082;-68
2022/04/08 01:39:05;;;;;;;11.60;8.40;;;;;;;7.50;79.24;95835.61;109917;1247;69440;-63
2022/04/08 01:41:36;;;;;;;12.10;8.30;;;;;;;7.46;79.51;95840.80;110068;1247;59678;-62
2022/04/08 01:44:06;;;;;;;13.10;8.40;;;;;;;7.44;79.57;95844.59;110050;1247;59616;-68
2022/04/08 01:46:37;;;;;;;11.60;8.40;;;;;;;7.41;79.24;95843.45;110074;1247;70530;-65
2022/04/08 01:49:07;;;;;;;11.60;8.70;;;;;;;7.36;79.49;95840.69;110079;1246;69243;-64
2022/04/08 01:51:38;;;;;;;9.70;7.90;;;;;;;7.32;79.48;95841.83;110112;1247;68704;-62
2022/04/08 01:54:08;;;;;;;13.60;8.80;;;;;;;7.26;79.32;95839.17;110092;1247;59714;-63
2022/04/08 01:56:39;;;;;;;12.90;8.80;;;;;;;7.20;78.89;95839.88;109894;1247;59718;-63
2022/04/08 01:59:09;;;;;;;;;;;;;;;7.10;78.79;95834.79;110066;1247;70732;-62
2022/04/08 02:01:39;;;;;;;13.20;8.10;;;;;;;6.99;78.64;95831.93;110078;1247;69652;-62
2022/04/08 02:04:11;;;;;;;12.60;7.30;;;;;;;6.89;78.44;95828.42;110107;1247;68558;-62
2022/04/08 02:06:42;;;;;;;10.80;7.60;;;;;;;6.79;78.52;95822.16;110096;1247;59768;-63
2022/04/08 02:09:12;;;;;;;11.10;7.80;;;;;;;6.70;79.30;95821.00;110154;1247;59759;-62
2022/04/08 02:11:43;;;;;;;11.30;6.90;;;;;;;6.61;78.93;95818.07;110000;1247;72545;-64
2022/04/08 02:14:14;;;;;;;8.80;6.40;;;;;;;6.51;78.99;95816.48;110024;1247;69308;-63
2022/04/08 02:16:45;;;;;;;10.50;7.40;;;;;;;6.41;79.95;95818.68;109953;1247;69432;-63
2022/04/08 02:19:16;;;;;;;11.10;7.50;;;;;;;6.26;81.35;95821.50;110047;1247;59689;-63
2022/04/08 02:21:48;;;;;;;11.30;7.90;;;;;;;6.09;80.90;95822.63;110056;1247;59709;-61
2022/04/08 02:24:18;;;;;;;10.60;7.70;;;;;;;5.90;81.67;95823.61;110061;1247;70961;-63
2022/04/08 02:26:48;;;;;;;12.20;8.40;;;;;;;5.75;81.53;95829.15;110097;1247;68522;-60
2022/04/08 02:29:19;;;;;;;11.90;9.10;;;;;;;5.58;82.10;95833.20;110140;1245;69241;-64
2022/04/08 02:31:49;;;;;;;;;;;;;;;5.44;83.16;95833.63;109943;1247;59701;-61
2022/04/08 02:34:19;;;;;;;15.30;10.00;;;;;;;5.31;84.30;95832.50;110164;1245;59637;-65
2022/04/08 02:36:50;;;;;;;14.90;10.20;;;;;;;5.22;84.27;95827.56;110062;1248;70619;-62
2022/04/08 02:39:20;;;;;;;15.00;10.10;;;;;;;5.14;82.84;95825.59;109841;1247;68550;-67
2022/04/08 02:41:50;;;;;;;17.20;10.70;;;;;;;5.07;82.98;95824.89;109775;1249;67734;-65
2022/04/08 02:44:20;;;;;;;13.50;9.20;;;;;;;5.02;84.56;95822.86;109953;1248;59712;-66
2022/04/08 02:46:51;;;;;;;12.50;8.70;;;;;;;4.97;85.78;95832.02;110091;1247;59751;-65
2022/04/08 02:49:21;;;;;;;12.60;7.90;;;;;;;4.92;84.76;95838.83;110112;1247;71504;-63
2022/04/08 02:51:52;;;;;;;17.60;10.90;;;;;;;4.87;83.79;95847.10;110096;1247;69464;-64
2022/04/08 02:54:23;;;;;;;13.50;8.70;;;;;;;4.88;84.58;95850.16;109957;1247;69417;-62
2022/04/08 02:56:53;;;;;;;13.80;8.80;;;;;;;4.91;87.12;95853.59;110072;1247;59739;-64
2022/04/08 02:59:23;;;;;;;;;;;;;;;4.94;86.25;95856.25;110096;1247;59686;-61
2022/04/08 03:01:53;;;;;;;20.00;11.90;;;;;;;5.02;86.10;95859.96;109852;1247;71009;-63
2022/04/08 03:04:25;;;;;;;14.40;9.80;;;;;;;5.14;87.54;95866.15;110039;1246;68600;-64
2022/04/08 03:06:58;;;;;;;23.90;12.30;;;;;;;5.22;87.95;95863.29;110132;1247;69396;-65
2022/04/08 03:09:28;;;;;;;19.90;12.70;;;;;;;5.27;86.19;95862.05;110144;1247;59693;-64
2022/04/08 03:11:59;;;;;;;18.40;11.80;;;;;;;5.33;85.62;95863.27;110040;1247;59759;-63
2022/04/08 03:14:29;;;;;;;18.10;11.90;;;;;;;5.40;85.48;95869.90;110081;1247;71373;-66
2022/04/08 03:16:59;;;;;;;18.60;11.70;;;;;;;5.44;86.34;95872.52;110064;1247;69348;-65
2022/04/08 03:19:28;;;;;;;16.50;9.30;;;;;;;5.46;85.74;95871.45;110038;1247;69406;-62
2022/04/08 03:21:59;;;;;;;14.50;9.90;;;;;;;5.49;85.07;95870.92;110085;1247;59731;-62
2022/04/08 03:24:30;;;;;;;;;;;;;;;5.49;84.42;95868.50;110150;1247;59692;-64
2022/04/08 03:27:00;;;;;;;13.40;9.50;;;;;;;5.47;83.71;95870.56;109925;1247;71641;-62
2022/04/08 03:29:30;;;;;;;17.30;9.80;;;;;;;5.43;83.26;95870.15;110104;1247;69161;-65
2022/04/08 03:31:59;;;;;;;13.70;10.70;;;;;;;5.36;82.98;95873.39;110086;1247;69579;-65
2022/04/08 03:34:29;;;;;;;17.10;10.60;;;;;;;5.27;83.02;95872.78;110080;1247;59697;-64
2022/04/08 03:36:59;;;;;;;15.80;12.10;;;;;;;5.16;83.23;95871.86;110109;1245;60050;-63
2022/04/08 03:39:29;;;;;;;15.20;9.40;;;;;;;5.06;84.83;95870.19;110170;1246;70518;-66
2022/04/08 03:42:00;;;;;;;12.70;8.60;;;;;;;4.99;84.09;95872.44;110180;1247;68467;-65
2022/04/08 03:44:29;;;;;;;17.10;12.00;;;;;;;4.91;83.38;95881.14;110114;1247;69433;-61
2022/04/08 03:46:59;;;;;;;17.70;11.60;;;;;;;4.81;84.61;95889.30;110023;1247;59736;-64
2022/04/08 03:49:32;;;;;;;15.20;10.30;;;;;;;4.72;84.70;95899.49;110062;1247;59683;-62
2022/04/08 03:52:08;;;;;;;12.80;9.10;;;;;;;4.65;85.97;95907.63;110055;1247;71360;-62
2022/04/08 03:54:38;;;;;;;15.20;10.00;;;;;;;4.57;86.17;95912.63;109884;1248;69361;-60
2022/04/08 03:57:08;;;;;;;19.50;12.50;;;;;;;4.51;85.93;95918.42;110008;1247;69248;-60
2022/04/08 03:59:42;;;;;;;14.70;9.60;;;;;;;4.45;85.50;95915.79;109921;1247;59736;-61
2022/04/08 04:02:11;;;;;;;13.00;8.80;;;;;;;4.42;85.61;95913.94;110010;1247;59608;-63
2022/04/08 04:04:41;;;;;;;16.80;10.60;;;;;;;4.39;85.61;95920.66;109804;1248;70732;-62
2022/04/08 04:07:11;;;;;;;13.10;8.50;;;;;;;4.39;85.25;95924.34;110041;1247;67538;-63
2022/04/08 04:09:41;;;;;;;12.50;8.80;;;;;;;4.39;85.52;95927.45;110044;1247;69703;-61
2022/04/08 04:12:11;;;;;;;20.30;12.40;;;;;;;4.40;85.78;95929.91;110083;1247;59753;-69
2022/04/08 04:14:41;;;;;;;15.40;10.20;;;;;;;4.42;86.93;95928.75;110083;1247;59703;-63
2022/04/08 04:17:10;;;;;;;17.00;11.20;;;;;;;4.43;86.73;95936.40;110116;1247;71038;-63
2022/04/08 04:19:40;;;;;;;13.70;9.60;;;;;;;4.46;87.61;95943.67;110062;1246;68662;-62
2022/04/08 04:22:10;;;;;;;13.50;8.60;;;;;;;4.48;87.38;95950.05;110021;1247;69573;-62
2022/04/08 04:24:40;;;;;;;17.60;11.80;;;;;;;4.51;87.96;95956.42;110052;1247;59692;-62
2022/04/08 04:27:09;;;;;;;16.60;11.20;;;;;;;4.53;87.56;95953.83;109861;1247;59708;-61
2022/04/08 04:29:39;;;;;;;11.20;8.20;;;;;;;4.61;87.20;95953.63;110117;1247;71347;-63
2022/04/08 04:32:09;;;;;;;17.20;10.40;;;;;;;4.71;87.79;95958.61;110064;1247;69420;-63
2022/04/08 04:34:39;;;;;;;12.80;10.00;;;;;;;4.80;88.06;95958.45;110111;1247;68748;-62
2022/04/08 04:37:09;;;;;;;13.00;8.80;;;;;;;4.89;86.17;95965.52;110108;1247;59699;-64
2022/04/08 04:39:39;;;;;;;14.00;9.70;;;;;;;5.00;85.25;95963.04;110126;1247;59701;-59
2022/04/08 04:42:09;;;;;;;;;;;;;;;5.11;84.80;95957.20;110181;1247;70739;-60
2022/04/08 04:44:39;;;;;;;17.80;11.10;;;;;;;5.23;83.61;95964.40;110048;1247;69192;-62
2022/04/08 04:47:09;;;;;;;18.90;12.90;;;;;;;5.34;83.83;95967.71;109981;1247;69369;-61
2022/04/08 04:49:40;;;;;;;21.60;14.20;;;;;;;5.45;84.50;95973.67;110037;1247;59784;-60
2022/04/08 04:52:10;;;;;;;18.50;12.40;;;;;;;5.60;84.66;95974.58;110127;1247;59665;-67
2022/04/08 04:54:41;;;;;;;21.10;13.30;;;;;;;5.78;84.48;95974.48;109974;1247;71594;-61
2022/04/08 04:57:10;;;;;;;25.10;17.00;;;;;;;5.96;83.86;95968.23;110075;1247;67882;-67
2022/04/08 04:59:39;;;;;;;24.50;15.90;;;;;;;6.13;83.63;95967.64;110024;1247;68782;-66
2022/04/08 05:02:09;;;;;;;21.70;13.80;;;;;;;6.28;83.40;95973.76;110019;1247;59635;-67
2022/04/08 05:04:39;;;;;;;18.70;11.10;;;;;;;6.43;82.61;95971.46;110035;1247;60065;-67
2022/04/08 05:07:08;;;;;;;20.80;12.70;;;;;;;6.68;82.06;95977.64;110160;1247;71299;-65
2022/04/08 05:09:41;;;;;;;19.20;12.50;;;;;;;6.99;81.47;95982.22;109982;1247;69611;-67
2022/04/08 05:12:11;;;;;;;19.70;13.60;;;;;;;7.37;81.22;95979.84;110125;1247;69481;-62
2022/04/08 05:14:40;;;;;;;22.80;15.30;;;;;;;7.66;81.18;95977.09;110041;1247;59670;-67
2022/04/08 05:17:09;;;;;;;23.30;16.30;;;;;;;7.87;80.78;95979.09;110108;1247;59643;-64
2022/04/08 05:19:38;;;;;;;18.90;13.80;;;;;;;8.03;79.70;95986.26;110114;1247;70632;-62
2022/04/08 05:22:14;;;;;;;31.00;22.40;;;;;;;8.15;78.08;95999.44;110076;1247;69401;-63
2022/04/08 05:24:44;;;;;;;24.70;18.20;;;;;;;8.19;76.22;95996.23;110080;1247;69396;-62
2022/04/08 05:27:13;;;;;;;;;;;;;;;8.17;74.88;96005.34;109993;1247;59754;-61
2022/04/08 05:29:42;;;;;;;20.30;13.10;;;;;;;8.23;75.32;96021.70;110123;1247;59743;-64
2022/04/08 05:32:12;;;;;;;15.80;11.50;;;;;;;8.35;74.75;96022.96;110037;1246;70927;-62
2022/04/08 05:34:42;;;;;;;13.90;11.00;;;;;;;8.49;73.51;96019.00;110123;1247;69345;-63
2022/04/08 05:37:12;;;;;;;12.50;9.70;;;;;;;8.76;72.75;96021.29;110072;1247;69445;-63
2022/04/08 05:39:42;;;;;;;13.40;9.30;;;;;;;9.14;74.64;96029.27;109924;1247;59713;-65
2022/04/08 05:42:11;;;;;;;13.50;9.30;;;;;;;9.60;76.68;96030.00;110122;1246;59744;-66
2022/04/08 05:44:41;;;;;;;12.80;9.40;;;;;;;10.11;77.36;96027.58;110083;1247;71546;-62
2022/04/08 05:47:11;;;;;;;15.10;12.30;;;;;;;10.58;75.28;96017.81;110069;1247;69058;-62
2022/04/08 05:49:41;;;;;;;15.20;11.60;;;;;;;10.96;72.37;96016.74;110005;1247;68649;-62
2022/04/08 05:52:12;;;;;;;;;;;;;;;11.21;70.58;96012.58;109884;1248;59673;-64
2022/04/08 05:54:41;;;;;;;13.10;10.50;;;;;;;11.38;66.28;96007.61;110031;1247;59790;-67
2022/04/08 05:57:10;;;;;;;11.40;9.20;;;;;;;11.67;69.13;96010.34;110015;1247;71572;-63
2022/04/08 05:59:42;;;;;;;14.10;9.80;;;;;;;12.02;66.25;96004.63;109880;1249;69426;-64
2022/04/08 06:02:12;;;;;;;15.20;10.70;;;;;;;12.26;65.19;96001.79;110059;1247;69484;-62
2022/04/08 06:04:41;;;;;;;12.70;9.40;;;;;;;12.41;63.12;96007.23;109807;1249;59695;-63
2022/04/08 06:07:10;;;;;;;12.90;9.80;;;;;;;12.54;59.92;96006.33;110029;1247;59665;-68
2022/04/08 06:09:40;;;;;;;12.80;10.60;;;;;;;12.95;63.84;96005.56;110042;1247;71012;-69
2022/04/08 06:12:09;;;;;;;11.80;10.00;;;;;;;13.21;63.42;95995.29;110165;1245;68645;-69
2022/04/08 06:14:39;;;;;;;11.60;10.40;;;;;;;13.45;61.06;95981.08;109984;1247;68517;-65
2022/04/08 06:17:08;;;;;;;11.10;9.20;;;;;;;13.66;61.15;95976.81;110033;1247;59709;-69
2022/04/08 06:19:37;;;;;;;13.50;10.30;;;;;;;13.85;58.10;95973.17;110046;1247;59725;-63
2022/04/08 06:22:07;;;;;;;13.60;10.10;;;;;;;14.10;58.43;95967.81;110076;1246;70763;-69
2022/04/08 06:24:37;;;;;;;17.40;11.10;;;;;;;14.29;57.68;95965.61;109867;1247;68577;-66
2022/04/08 06:27:06;;;;;;;9.40;8.20;;;;;;;14.58;58.14;95969.57;109353;1247;772104;-69
2022/04/08 06:29:35;;;;;;;10.30;8.40;;;;;;;14.89;56.10;95972.24;110049;1247;59615;-68
2022/04/08 06:32:05;;;;;;;10.30;7.90;;;;;;;15.01;53.83;95969.45;110036;1247;59688;-62
2022/04/08 06:34:34;;;;;;;11.40;9.10;;;;;;;15.02;54.01;95978.98;110148;1247;72255;-70
2022/04/08 06:37:05;;;;;;;10.00;8.50;;;;;;;15.05;53.82;95970.70;110020;1247;68829;-70
2022/04/08 06:39:34;;;;;;;13.50;9.00;;;;;;;15.14;53.96;95970.09;110167;1246;68669;-65
2022/04/08 06:42:04;;;;;;;12.20;9.80;;;;;;;15.21;52.66;95975.41;110096;1247;59682;-64
2022/04/08 06:44:33;;;;;;;13.60;9.70;;;;;;;15.48;52.42;95981.30;110052;1247;59694;-64
2022/04/08 06:47:02;;;;;;;;;;;;;;;15.37;51.12;95983.55;110102;1247;71558;-67
2022/04/08 06:49:32;;;;;;;11.80;9.60;;;;;;;15.04;51.31;95997.39;109972;1248;69430;-63
2022/04/08 06:52:02;;;;;;;11.80;9.70;;;;;;;14.93;51.47;96008.04;110046;1247;69455;-68
2022/04/08 06:54:32;;;;;;;10.70;9.50;;;;;;;14.99;51.78;96011.61;110071;1247;59668;-63
2022/04/08 06:57:01;;;;;;;13.80;11.50;;;;;;;14.92;51.40;96021.04;109762;1247;59758;-64
2022/04/08 06:59:30;;;;;;;12.80;10.70;;;;;;;14.41;52.11;96024.36;110106;1247;70813;-66
2022/04/08 07:02:00;;;;;;;14.70;10.60;;;;;;;14.16;53.09;96035.10;110075;1247;68588;-65
2022/04/08 07:04:29;;;;;;;14.00;11.90;;;;;;;13.95;53.74;96046.06;110043;1246;69535;-61
2022/04/08 07:06:59;;;;;;;15.00;12.80;;;;;;;13.92;53.93;96051.65;110042;1247;59744;-64
2022/04/08 07:09:30;;;;;;;13.50;11.40;;;;;;;14.19;53.44;96058.35;110085;1246;59672;-68
2022/04/08 07:12:00;;;;;;;15.80;11.60;;;;;;;14.52;52.90;96059.48;110081;1247;71373;-64
2022/04/08 07:14:29;;;;;;;12.90;10.40;;;;;;;14.78;52.35;96063.59;110074;1246;69513;-65
2022/04/08 07:16:59;;;;;;;14.30;11.00;;;;;;;14.77;52.54;96066.85;110046;1247;68689;-63
2022/04/08 07:19:28;;;;;;;12.60;10.20;;;;;;;14.86;52.54;96070.83;110075;1247;59723;-63
2022/04/08 07:21:57;;;;;;;10.10;8.40;;;;;;;14.92;52.42;96076.64;110054;1247;59631;-66
2022/04/08 07:24:27;;;;;;;15.30;10.50;;;;;;;15.00;52.04;96093.23;109987;1247;72284;-65
2022/04/08 07:26:56;;;;;;;11.30;9.60;;;;;;;15.10;51.75;96092.46;110090;1246;68613;-62
2022/04/08 07:29:25;;;;;;;;;;;;;;;15.37;51.48;96089.39;110058;1247;68653;-67
2022/04/08 07:31:54;;;;;;;11.60;9.60;;;;;;;15.71;50.91;96092.25;110071;1247;59751;-64
2022/04/08 07:34:24;;;;;;;12.00;9.60;;;;;;;15.39;50.73;96095.70;110045;1247;59675;-66
2022/04/08 07:36:53;;;;;;;9.90;7.80;;;;;;;14.98;51.61;96096.78;110082;1247;70589;-64
2022/04/08 07:39:22;;;;;;;9.90;8.70;;;;;;;14.71;52.26;96099.45;110071;1247;69424;-62
2022/04/08 07:41:51;;;;;;;12.10;9.80;;;;;;;14.70;52.57;96106.02;110057;1246;69466;-65
2022/04/08 07:44:21;;;;;;;9.50;8.50;;;;;;;14.85;52.50;96108.80;110048;1247;59689;-67
2022/04/08 07:46:50;;;;;;;11.90;8.80;;;;;;;14.46;53.22;96124.91;110024;1247;59724;-66
2022/04/08 07:49:19;;;;;;;10.30;9.30;;;;;;;14.27;54.17;96132.91;110096;1247;71579;-66
2022/04/08 07:51:48;;;;;;;10.60;8.60;;;;;;;14.16;54.09;96139.78;110051;1246;68627;-64
2022/04/08 07:54:18;;;;;;;9.80;8.60;;;;;;;14.25;54.30;96141.63;110094;1247;69517;-62
2022/04/08 07:56:47;;;;;;;10.40;9.20;;;;;;;14.22;54.62;96141.34;110082;1247;59697;-63
2022/04/08 07:59:18;;;;;;;11.00;8.80;;;;;;;14.60;53.57;96135.89;110000;1247;59637;-68
2022/04/08 08:01:48;;;;;;;11.60;9.40;;;;;;;15.05;52.81;96130.80;110074;1246;70551;-64
2022/04/08 08:04:18;;;;;;;11.40;8.90;;;;;;;15.13;52.03;96139.44;110110;1247;69513;-67
2022/04/08 08:06:48;;;;;;;10.00;9.00;;;;;;;15.41;51.93;96135.89;109805;1247;68802;-64
2022/04/08 08:09:17;;;;;;;10.30;8.00;;;;;;;15.70;50.75;96140.13;110104;1247;59688;-65
2022/04/08 08:12:07;;;;;;;10.30;8.90;;;;;;;15.76;50.89;96140.36;110132;1247;59679;-65
2022/04/08 08:14:37;;;;;;;10.60;8.50;;;;;;;15.76;50.46;96153.16;110175;1247;70787;-65
2022/04/08 08:17:06;;;;;;;10.40;9.20;;;;;;;15.69;50.13;96157.36;110080;1247;69396;-67
2022/04/08 08:19:36;;;;;;;11.10;9.50;;;;;;;15.61;49.88;96157.31;110088;1247;69447;-64
2022/04/08 08:22:06;;;;;;;13.30;10.40;;;;;;;15.91;49.27;96161.59;110070;1247;59686;-63
2022/04/08 08:24:35;;;;;;;10.70;8.80;;;;;;;15.90;49.02;96163.73;110097;1247;59673;-65
2022/04/08 08:27:05;;;;;;;;;;;;;;;15.93;49.92;96160.39;110102;1247;71588;-67
2022/04/08 08:29:34;;;;;;;9.80;8.00;;;;;;;16.21;49.04;96169.61;110055;1247;69589;-66
2022/04/08 08:32:04;;;;;;;9.40;8.30;;;;;;;16.72;47.87;96168.44;110096;1247;69257;-66
2022/04/08 08:34:33;;;;;;;12.10;9.00;;;;;;;16.86;46.97;96165.20;110119;1247;59751;-66
2022/04/08 08:37:03;;;;;;;9.00;7.90;;;;;;;16.63;47.71;96170.23;110119;1247;59648;-65
2022/04/08 08:39:33;;;;;;;10.50;7.80;;;;;;;16.06;48.60;96174.19;110029;1248;71554;-64
2022/04/08 08:42:06;;;;;;;7.40;6.60;;;;;;;15.97;49.09;96173.61;110112;1247;69501;-63
2022/04/08 08:44:36;;;;;;;7.90;6.80;;;;;;;16.17;48.80;96175.35;110048;1247;69284;-63
2022/04/08 08:47:12;;;;;;;10.80;8.30;;;;;;;16.09;48.81;96178.44;110149;1247;59756;-65
2022/04/08 08:49:48;;;;;;;9.10;7.10;;;;;;;16.08;48.87;96178.31;110103;1247;59648;-62
2022/04/08 08:52:19;;;;;;;10.90;8.90;;;;;;;16.07;48.58;96181.59;110098;1247;69769;-65
2022/04/08 08:54:48;;;;;;;8.40;6.50;;;;;;;16.15;49.13;96184.55;110136;1245;69498;-65
2022/04/08 08:57:18;;;;;;;8.20;7.40;;;;;;;17.07;47.72;96183.98;110061;1247;67996;-61
2022/04/08 08:59:51;;;;;;;8.90;6.40;;;;;;;17.69;44.90;96177.33;109847;1247;59739;-62
2022/04/08 09:02:21;;;;;;;6.30;5.00;;;;;;;17.90;42.66;96182.36;110110;1247;59719;-66
2022/04/08 09:04:50;;;;;;;5.90;5.00;;;;;;;18.17;41.56;96183.83;110070;1247;70875;-66
2022/04/08 09:07:25;;;;;;;5.60;4.70;;;;;;;18.93;40.76;96196.91;110098;1247;68439;-62
2022/04/08 09:09:58;;;;;;;7.50;6.80;;;;;;;19.65;40.01;96185.83;110081;1247;68379;-63
2022/04/08 09:12:31;;;;;;;6.00;5.40;;;;;;;20.04;37.99;96190.98;110038;1247;59686;-64
2022/04/08 09:15:02;;;;;;;6.00;5.20;;;;;;;20.14;37.15;96187.52;110081;1247;59646;-65
2022/04/08 09:17:31;;;;;;;7.70;5.40;;;;;;;19.95;36.05;96183.34;110065;1247;71045;-65
2022/04/08 09:20:01;;;;;;;5.80;4.50;;;;;;;19.74;36.54;96189.95;110118;1247;68649;-63
2022/04/08 09:22:36;;;;;;;5.40;4.60;;;;;;;20.18;36.84;96194.28;110071;1247;68659;-62
2022/04/08 09:25:10;;;;;;;5.20;4.70;;;;;;;20.54;36.01;96191.02;110025;1247;59738;-64
2022/04/08 09:27:41;;;;;;;6.10;5.50;;;;;;;21.15;35.68;96192.55;110069;1247;59696;-62
2022/04/08 09:30:10;;;;;;;6.20;4.60;;;;;;;21.28;34.89;96202.34;110062;1247;70787;-63
2022/04/08 09:32:40;;;;;;;5.60;5.00;;;;;;;21.40;34.95;96202.48;110076;1247;68640;-65
2022/04/08 09:35:17;;;;;;;5.90;4.50;;;;;;;21.39;34.46;96210.25;110065;1247;69738;-61
2022/04/08 09:37:59;;;;;;;5.90;4.70;;;;;;;21.64;34.49;96209.62;110066;1247;59704;-63
2022/04/08 09:40:36;;;;;;;6.20;5.10;;;;;;;22.09;34.15;96214.11;109982;1247;59715;-63
2022/04/08 09:43:06;;;;;;;8.10;5.80;;;;;;;22.16;33.18;96216.21;110074;1247;71545;-63
2022/04/08 09:45:38;;;;;;;7.30;5.20;;;;;;;21.25;34.35;96215.87;110143;1247;68621;-62
2022/04/08 09:48:08;;;;;;;6.40;5.60;;;;;;;20.81;35.29;96219.94;110018;1247;69491;-65
2022/04/08 09:50:40;;;;;;;5.60;5.00;;;;;;;20.46;35.94;96219.96;110076;1247;59762;-63
2022/04/08 09:53:11;;;;;;;6.60;5.90;;;;;;;20.45;36.12;96216.85;109972;1247;59629;-64
2022/04/08 09:55:43;;;;;;;7.10;6.10;;;;;;;20.17;36.15;96215.18;110102;1247;71583;-65
2022/04/08 09:58:14;;;;;;;7.50;6.00;;;;;;;20.41;36.22;96222.02;110083;1247;69502;-62
2022/04/08 10:00:45;;;;;;;6.80;6.00;;;;;;;20.86;35.63;96236.09;110100;1247;69236;-63
2022/04/08 10:03:14;;;;;;;7.90;6.40;;;;;;;21.10;35.43;96240.49;110023;1247;59762;-65
2022/04/08 10:05:43;;;;;;;;;;;;;;;20.74;35.34;96252.00;110131;1247;59738;-63
2022/04/08 10:08:13;;;;;;;8.50;6.90;;;;;;;20.40;36.29;96259.02;110091;1247;70742;-63
2022/04/08 10:10:51;;;;;;;;;;;;;;;20.45;36.82;96258.70;110095;1247;69456;-64
2022/04/08 10:13:35;;;;;;;8.70;7.50;;;;;;;19.74;37.54;96263.37;110130;1247;67775;-62
2022/04/08 10:16:17;;;;;;;7.80;6.60;;;;;;;18.83;39.15;96264.98;110092;1247;59732;-62
2022/04/08 10:18:49;;;;;;;9.80;7.10;;;;;;;18.58;39.88;96273.00;110080;1247;59599;-63
2022/04/08 10:21:18;;;;;;;7.60;6.60;;;;;;;18.66;40.01;96281.88;110116;1247;71681;-63
2022/04/08 10:23:51;;;;;;;6.70;5.60;;;;;;;18.43;39.80;96282.73;110098;1247;68409;-65
2022/04/08 10:26:22;;;;;;;7.50;6.80;;;;;;;18.25;40.05;96287.72;110077;1247;69525;-62
2022/04/08 10:28:55;;;;;;;7.80;7.00;;;;;;;18.34;40.19;96283.95;110133;1247;59733;-65
2022/04/08 10:31:26;;;;;;;9.60;7.10;;;;;;;18.49;39.40;96287.12;110090;1247;59663;-63
2022/04/08 10:33:57;;;;;;;7.70;6.50;;;;;;;18.18;39.56;96286.16;110056;1248;70800;-61
2022/04/08 10:36:32;;;;;;;8.70;6.50;;;;;;;17.74;40.19;96292.82;110130;1247;69455;-61
2022/04/08 10:39:23;;;;;;;5.80;5.20;;;;;;;17.18;40.75;96301.63;110064;1247;68752;-61
2022/04/08 10:41:57;;;;;;;6.00;3.80;;;;;;;17.21;40.54;96304.16;110065;1247;59694;-62
2022/04/08 10:44:38;;;;;;;4.60;4.20;;;;;;;17.45;40.49;96304.39;109865;1247;59735;-62
2022/04/08 10:47:16;;;;;;;5.80;5.20;;;;;;;18.17;39.92;96302.34;110107;1247;71573;-63
2022/04/08 10:49:52;;;;;;;6.30;5.00;;;;;;;18.30;39.40;96299.16;110081;1246;69392;-63
2022/04/08 10:52:24;;;;;;;6.40;5.70;;;;;;;18.20;39.94;96304.52;110105;1247;69475;-61
2022/04/08 10:55:05;;;;;;;6.00;4.40;;;;;;;17.73;40.07;96307.02;110103;1247;59745;-62
2022/04/08 10:57:45;;;;;;;5.90;4.10;;;;;;;17.20;41.07;96308.39;109908;1247;59713;-65
2022/04/08 11:00:18;;;;;;;5.80;4.20;;;;;;;16.88;42.02;96312.19;110074;1247;71528;-62
2022/04/08 11:02:47;;;;;;;5.60;5.00;;;;;;;16.63;42.22;96312.66;110027;1247;69463;-63
2022/04/08 11:05:17;;;;;;;4.90;3.50;;;;;;;16.85;42.21;96313.68;109959;1247;69229;-65
2022/04/08 11:07:50;;;;;;;4.90;4.30;;;;;;;17.11;41.99;96314.71;110117;1247;59756;-62
2022/04/08 11:10:21;;;;;;;5.90;4.60;;;;;;;17.27;41.33;96313.19;110090;1245;59715;-61
2022/04/08 11:12:53;;;;;;;5.60;3.80;;;;;;;17.09;41.66;96310.74;110111;1247;71725;-63
2022/04/08 11:15:24;;;;;;;6.10;4.50;;;;;;;16.89;42.27;96304.18;110029;1247;69505;-66
2022/04/08 11:17:54;;;;;;;5.40;4.00;;;;;;;16.91;42.63;96304.04;110077;1247;69313;-63
2022/04/08 11:20:23;;;;;;;5.40;4.20;;;;;;;17.34;41.75;96302.23;110001;1247;59823;-67
2022/04/08 11:22:54;;;;;;;5.00;3.70;;;;;;;17.63;41.22;96301.52;110032;1247;59742;-63
2022/04/08 11:25:30;;;;;;;5.20;3.80;;;;;;;17.67;40.45;96296.63;110057;1247;71518;-64
2022/04/08 11:28:12;;;;;;;4.80;3.30;;;;;;;17.83;40.30;96293.18;109772;1249;69391;-64
2022/04/08 11:30:42;;;;;;;6.90;5.20;;;;;;;18.31;39.57;96287.38;109976;1248;69468;-66
2022/04/08 11:33:16;;;;;;;4.70;3.70;;;;;;;18.45;39.61;96296.56;110043;1247;59674;-65
2022/04/08 11:35:46;;;;;;;4.20;3.70;;;;;;;18.47;38.97;96306.03;110068;1248;59678;-66
2022/04/08 11:38:17;;;;;;;5.80;3.50;;;;;;;18.51;38.67;96307.00;110071;1248;70796;-64
2022/04/08 11:40:47;;;;;;;5.00;3.70;;;;;;;19.08;38.92;96302.87;110062;1247;69376;-64